Time;durP1;ratioP1;P1;durP2;ratioP2;P2;SDS_P1;SDS_P2;PMS_P1;PMS_P2;Temp;Humidity;BMP_temperature;BMP_pressure;BME280_temperature;BME280_humidity;BME280_pressure;Samples;Min_cycle;Max_cycle;Signal;HPM_P1;HPM_P2
2023/08/01 00:01:17;;;;;;;0.93;0.93;;;;;;;;;;5012891;28;20204;-89
2023/08/01 00:03:45;;;;;;;0.90;0.90;;;;;;;;;;5011820;28;20208;-89
2023/08/01 00:06:13;;;;;;;1.05;1.05;;;;;;;;;;5012306;28;20228;-89
2023/08/01 00:08:40;;;;;;;1.00;1.00;;;;;;;;;;5012965;28;20219;-89
2023/08/01 00:11:07;;;;;;;0.82;0.80;;;;;;;;;;5014356;28;20280;-89
2023/08/01 00:13:33;;;;;;;0.80;0.80;;;;;;;;;;5011711;28;20287;-90
2023/08/01 00:16:01;;;;;;;1.08;0.85;;;;;;;;;;5012513;28;20654;-89
2023/08/01 00:18:30;;;;;;;0.80;0.80;;;;;;;;;;5011700;28;20800;-88
2023/08/01 00:20:58;;;;;;;0.98;0.98;;;;;;;;;;5011338;28;20288;-89
2023/08/01 00:23:29;;;;;;;1.00;1.00;;;;;;;;;;5011867;28;20220;-89
2023/08/01 00:25:56;;;;;;;1.10;0.90;;;;;;;;;;5016518;28;20228;-89
2023/08/01 00:28:26;;;;;;;0.70;0.70;;;;;;;;;;5017607;28;20765;-89
2023/08/01 00:31:03;;;;;;;1.02;0.98;;;;;;;;;;5012469;28;20635;-89
2023/08/01 00:33:31;;;;;;;0.80;0.80;;;;;;;;;;5013134;28;20644;-88
2023/08/01 00:35:59;;;;;;;0.82;0.82;;;;;;;;;;5012734;28;20658;-88
2023/08/01 00:38:26;;;;;;;0.70;0.70;;;;;;;;;;4973012;28;20320;-88
2023/08/01 00:40:53;;;;;;;1.13;1.00;;;;;;;;;;4973210;28;20198;-89
2023/08/01 00:43:21;;;;;;;1.08;1.00;;;;;;;;;;4973276;28;20352;-88
2023/08/01 00:45:49;;;;;;;0.95;0.95;;;;;;;;;;4973119;28;20225;-90
2023/08/01 00:48:16;;;;;;;1.05;0.90;;;;;;;;;;4973912;28;20249;-89
2023/08/01 00:50:44;;;;;;;0.95;0.95;;;;;;;;;;4972814;28;20217;-89
2023/08/01 00:53:11;;;;;;;0.75;0.75;;;;;;;;;;4974334;28;20306;-90
2023/08/01 00:55:39;;;;;;;0.82;0.82;;;;;;;;;;4976081;28;20206;-89
2023/08/01 00:58:06;;;;;;;1.10;1.10;;;;;;;;;;4991234;28;20201;-86
2023/08/01 01:00:33;;;;;;;0.95;0.95;;;;;;;;;;4985528;28;20288;-89
2023/08/01 01:03:00;;;;;;;1.00;1.00;;;;;;;;;;4974036;28;20215;-89
2023/08/01 01:05:28;;;;;;;0.90;0.90;;;;;;;;;;4972086;28;20209;-89
2023/08/01 01:07:57;;;;;;;0.77;0.77;;;;;;;;;;4972295;28;20214;-90
2023/08/01 01:10:24;;;;;;;1.15;1.13;;;;;;;;;;4971835;28;20285;-89
2023/08/01 01:12:52;;;;;;;0.80;0.80;;;;;;;;;;4972967;28;20218;-89
2023/08/01 01:15:19;;;;;;;0.90;0.90;;;;;;;;;;4973108;28;20670;-89
2023/08/01 01:17:46;;;;;;;0.88;0.88;;;;;;;;;;4973345;28;20650;-89
2023/08/01 01:20:14;;;;;;;1.10;1.10;;;;;;;;;;4972732;28;20205;-88
2023/08/01 01:22:44;;;;;;;0.90;0.90;;;;;;;;;;4973970;28;20251;-89
2023/08/01 01:25:11;;;;;;;2.10;1.27;;;;;;;;;;4973403;28;20284;-88
2023/08/01 01:27:39;;;;;;;0.75;0.75;;;;;;;;;;4972544;28;20265;-88
2023/08/01 01:30:07;;;;;;;1.95;0.90;;;;;;;;;;4973058;28;20614;-88
2023/08/01 01:32:37;;;;;;;1.30;1.30;;;;;;;;;;4973425;28;20213;-89
2023/08/01 01:35:04;;;;;;;0.93;0.93;;;;;;;;;;4972883;28;20202;-89
2023/08/01 01:37:32;;;;;;;0.93;0.93;;;;;;;;;;4997976;28;20243;-88
2023/08/01 01:40:01;;;;;;;0.95;0.95;;;;;;;;;;5012087;28;20204;-89
2023/08/01 01:42:29;;;;;;;1.25;1.15;;;;;;;;;;5010981;28;20215;-88
2023/08/01 01:44:55;;;;;;;1.10;1.10;;;;;;;;;;5012037;28;20279;-88
2023/08/01 01:47:22;;;;;;;0.90;0.90;;;;;;;;;;5011295;28;20631;-89
2023/08/01 01:49:50;;;;;;;1.27;1.00;;;;;;;;;;5010680;28;20215;-89
2023/08/01 01:52:18;;;;;;;0.70;0.70;;;;;;;;;;5011335;28;20204;-88
2023/08/01 01:54:46;;;;;;;0.95;0.95;;;;;;;;;;5011404;28;20266;-88
2023/08/01 01:57:14;;;;;;;0.80;0.80;;;;;;;;;;5010973;28;20211;-90
2023/08/01 01:59:42;;;;;;;0.80;0.80;;;;;;;;;;5017408;28;20203;-88
2023/08/01 02:02:09;;;;;;;1.17;1.17;;;;;;;;;;5018775;28;20218;-89
2023/08/01 02:04:36;;;;;;;1.30;1.30;;;;;;;;;;5011514;28;20271;-88
2023/08/01 02:07:04;;;;;;;0.90;0.90;;;;;;;;;;5011744;28;20223;-88
2023/08/01 02:09:31;;;;;;;0.80;0.80;;;;;;;;;;5011794;28;20208;-90
2023/08/01 02:12:03;;;;;;;0.85;0.85;;;;;;;;;;5012111;28;20795;-88
2023/08/01 02:14:32;;;;;;;2.35;0.88;;;;;;;;;;5020012;28;20196;-90
2023/08/01 02:17:01;;;;;;;0.95;0.95;;;;;;;;;;5024102;28;20193;-90
2023/08/01 02:19:28;;;;;;;0.80;0.80;;;;;;;;;;5031764;28;20257;-88
2023/08/01 02:21:56;;;;;;;1.00;1.00;;;;;;;;;;5031123;28;20400;-88
2023/08/01 02:24:23;;;;;;;0.75;0.75;;;;;;;;;;5012478;28;20201;-88
2023/08/01 02:26:51;;;;;;;1.25;1.15;;;;;;;;;;5010722;28;20224;-89
2023/08/01 02:29:18;;;;;;;1.88;1.13;;;;;;;;;;5010864;28;20201;-89
2023/08/01 02:31:46;;;;;;;0.93;0.93;;;;;;;;;;5011637;28;20558;-88
2023/08/01 02:34:20;;;;;;;0.98;0.98;;;;;;;;;;5010700;28;20287;-89
2023/08/01 02:36:47;;;;;;;2.13;0.85;;;;;;;;;;5008998;28;20274;-89
2023/08/01 02:39:15;;;;;;;7.00;5.57;;;;;;;;;;5010551;28;20509;-89
2023/08/01 02:41:42;;;;;;;2.05;1.35;;;;;;;;;;5009689;28;20291;-87
2023/08/01 02:44:09;;;;;;;1.05;1.05;;;;;;;;;;5010575;28;20259;-90
2023/08/01 02:46:37;;;;;;;0.70;0.70;;;;;;;;;;5010391;28;20271;-88
2023/08/01 02:49:06;;;;;;;1.55;1.48;;;;;;;;;;5010164;28;20274;-89
2023/08/01 02:51:39;;;;;;;1.20;1.10;;;;;;;;;;5011364;28;20290;-89
2023/08/01 02:54:09;;;;;;;1.00;1.00;;;;;;;;;;5010488;28;20191;-88
2023/08/01 02:56:40;;;;;;;0.95;0.95;;;;;;;;;;5009764;28;20207;-89
2023/08/01 02:59:08;;;;;;;0.98;0.98;;;;;;;;;;5009722;28;20214;-89
2023/08/01 03:01:36;;;;;;;0.82;0.82;;;;;;;;;;5009906;28;20315;-89
2023/08/01 03:04:04;;;;;;;3.65;1.20;;;;;;;;;;5009342;28;20289;-88
2023/08/01 03:06:33;;;;;;;1.15;1.15;;;;;;;;;;5012277;28;20240;-90
2023/08/01 03:09:00;;;;;;;1.20;1.15;;;;;;;;;;5024885;28;20191;-87
2023/08/01 03:11:28;;;;;;;5.22;1.65;;;;;;;;;;5029313;28;20292;-90
2023/08/01 03:13:57;;;;;;;0.95;0.95;;;;;;;;;;5011059;28;20240;-89
2023/08/01 03:16:24;;;;;;;0.90;0.90;;;;;;;;;;5010662;28;20218;-88
2023/08/01 03:18:51;;;;;;;0.82;0.82;;;;;;;;;;5009655;28;20792;-88
2023/08/01 03:21:22;;;;;;;1.20;1.10;;;;;;;;;;5009583;28;20604;-87
2023/08/01 03:23:50;;;;;;;0.90;0.90;;;;;;;;;;5010189;28;20212;-89
2023/08/01 03:26:18;;;;;;;1.20;1.20;;;;;;;;;;5010700;28;20283;-90
2023/08/01 03:28:45;;;;;;;2.05;1.33;;;;;;;;;;5010492;28;20214;-88
2023/08/01 03:31:17;;;;;;;2.05;1.88;;;;;;;;;;5013055;28;20554;-88
2023/08/01 03:33:47;;;;;;;1.95;1.20;;;;;;;;;;5014285;28;20298;-88
2023/08/01 03:36:16;;;;;;;9.55;6.68;;;;;;;;;;5027169;28;20241;-88
2023/08/01 03:38:45;;;;;;;10.00;7.80;;;;;;;;;;5023724;28;20211;-87
2023/08/01 03:41:14;;;;;;;12.13;8.02;;;;;;;;;;5013372;28;20247;-88
2023/08/01 03:43:48;;;;;;;2.42;2.08;;;;;;;;;;5013545;28;20229;-87
2023/08/01 03:46:16;;;;;;;2.33;2.22;;;;;;;;;;5012913;28;20210;-88
2023/08/01 03:48:44;;;;;;;5.88;4.15;;;;;;;;;;5014676;28;20301;-88
2023/08/01 03:51:15;;;;;;;3.28;1.55;;;;;;;;;;5013463;28;20204;-88
2023/08/01 03:53:45;;;;;;;3.50;3.28;;;;;;;;;;5013755;28;20225;-89
2023/08/01 03:56:14;;;;;;;9.98;6.72;;;;;;;;;;5014020;28;20193;-88
2023/08/01 03:58:41;;;;;;;9.32;5.85;;;;;;;;;;5012982;28;20204;-87
2023/08/01 04:01:11;;;;;;;9.80;7.38;;;;;;;;;;5013664;28;20266;-88
2023/08/01 04:03:37;;;;;;;11.07;2.22;;;;;;;;;;5016368;28;20255;-90
2023/08/01 04:06:05;;;;;;;2.60;2.35;;;;;;;;;;5011906;28;20610;-88
2023/08/01 04:08:38;;;;;;;1.60;1.50;;;;;;;;;;5012945;28;20228;-89
2023/08/01 04:11:14;;;;;;;2.03;1.48;;;;;;;;;;5012649;28;20212;-89
2023/08/01 04:13:43;;;;;;;1.52;1.42;;;;;;;;;;5012940;28;20216;-87
2023/08/01 04:16:10;;;;;;;3.00;1.30;;;;;;;;;;5013077;28;20725;-88
2023/08/01 04:18:38;;;;;;;5.05;1.10;;;;;;;;;;5013825;28;20259;-88
2023/08/01 04:21:10;;;;;;;1.42;1.33;;;;;;;;;;5013284;28;20220;-89
2023/08/01 04:23:41;;;;;;;1.40;1.40;;;;;;;;;;5013058;28;20201;-89
2023/08/01 04:26:11;;;;;;;1.38;1.38;;;;;;;;;;5012338;28;20264;-89
2023/08/01 04:28:38;;;;;;;1.55;1.52;;;;;;;;;;5013223;28;20640;-89
2023/08/01 04:31:09;;;;;;;1.80;1.70;;;;;;;;;;5013025;28;20207;-89
2023/08/01 04:33:37;;;;;;;3.38;1.40;;;;;;;;;;5014421;28;20303;-90
2023/08/01 04:36:06;;;;;;;1.83;1.52;;;;;;;;;;5014753;28;20291;-88
2023/08/01 04:38:35;;;;;;;1.55;1.50;;;;;;;;;;5015640;28;20659;-89
2023/08/01 04:41:05;;;;;;;2.90;1.52;;;;;;;;;;5011889;28;20201;-88
2023/08/01 04:43:32;;;;;;;1.52;1.42;;;;;;;;;;5014665;28;20207;-88
2023/08/01 04:45:59;;;;;;;1.55;1.45;;;;;;;;;;5013686;28;20764;-89
2023/08/01 04:48:35;;;;;;;2.55;1.40;;;;;;;;;;5015147;28;20311;-88
2023/08/01 04:51:02;;;;;;;1.60;1.50;;;;;;;;;;5016318;28;20206;-88
2023/08/01 04:53:29;;;;;;;2.03;1.88;;;;;;;;;;5015096;28;20196;-88
2023/08/01 04:55:57;;;;;;;2.33;1.80;;;;;;;;;;5013895;28;20646;-87
2023/08/01 04:58:25;;;;;;;2.22;1.52;;;;;;;;;;5014554;28;20208;-88
2023/08/01 05:00:52;;;;;;;1.92;1.83;;;;;;;;;;5013249;28;20609;-89
2023/08/01 05:03:20;;;;;;;1.52;1.52;;;;;;;;;;5012656;28;20200;-88
2023/08/01 05:05:48;;;;;;;1.50;1.50;;;;;;;;;;5015778;28;20315;-88
2023/08/01 05:08:15;;;;;;;1.80;1.70;;;;;;;;;;5009485;28;20220;-89
2023/08/01 05:10:42;;;;;;;1.70;1.60;;;;;;;;;;5011847;28;20266;-87
2023/08/01 05:13:09;;;;;;;1.77;1.58;;;;;;;;;;5022724;28;20208;-87
2023/08/01 05:15:37;;;;;;;2.25;2.05;;;;;;;;;;5019267;28;20226;-88
2023/08/01 05:18:04;;;;;;;1.73;1.55;;;;;;;;;;5012516;28;20374;-88
2023/08/01 05:20:33;;;;;;;1.85;1.75;;;;;;;;;;5014257;28;20202;-87
2023/08/01 05:23:01;;;;;;;2.40;2.20;;;;;;;;;;5013337;28;20201;-88
2023/08/01 05:25:28;;;;;;;2.08;1.98;;;;;;;;;;5010929;28;20531;-88
2023/08/01 05:27:56;;;;;;;1.98;1.80;;;;;;;;;;5010861;28;20260;-89
2023/08/01 05:30:23;;;;;;;2.20;2.10;;;;;;;;;;5011297;28;20230;-89
2023/08/01 05:32:50;;;;;;;1.92;1.90;;;;;;;;;;5005837;28;20222;-88
2023/08/01 05:35:18;;;;;;;3.80;2.03;;;;;;;;;;5011494;28;20200;-87
2023/08/01 05:37:45;;;;;;;1.98;1.88;;;;;;;;;;5010250;28;20300;-89
2023/08/01 05:40:19;;;;;;;1.88;1.83;;;;;;;;;;5011284;28;20203;-87
2023/08/01 05:42:47;;;;;;;2.35;1.95;;;;;;;;;;5006144;28;20200;-88
2023/08/01 05:45:15;;;;;;;1.92;1.83;;;;;;;;;;5010752;28;20318;-89
2023/08/01 05:47:42;;;;;;;2.08;1.98;;;;;;;;;;5010129;28;20286;-87
2023/08/01 05:50:10;;;;;;;15.05;2.15;;;;;;;;;;4997655;28;20220;-87
2023/08/01 05:52:37;;;;;;;1.25;1.25;;;;;;;;;;5011504;28;20295;-88
2023/08/01 05:55:11;;;;;;;2.15;1.48;;;;;;;;;;5015573;28;20224;-87
2023/08/01 06:00:30;;;;;;;1.88;1.80;;;;;;;;;;5009933;28;20266;-88
2023/08/01 06:03:00;;;;;;;1.52;1.50;;;;;;;;;;5022293;28;20238;-86
2023/08/01 06:05:28;;;;;;;1.13;1.13;;;;;;;;;;5016565;28;20204;-88
2023/08/01 06:07:55;;;;;;;1.45;1.45;;;;;;;;;;5019878;28;20321;-87
2023/08/01 06:10:23;;;;;;;1.33;1.23;;;;;;;;;;5011747;28;20207;-87
2023/08/01 06:12:54;;;;;;;2.10;1.27;;;;;;;;;;5010702;28;20227;-88
2023/08/01 06:15:22;;;;;;;7.18;1.25;;;;;;;;;;5012011;28;20204;-88
2023/08/01 06:17:49;;;;;;;1.20;1.20;;;;;;;;;;5010913;28;20242;-86
2023/08/01 06:20:16;;;;;;;1.17;1.17;;;;;;;;;;5011532;28;20619;-87
2023/08/01 06:22:44;;;;;;;1.10;1.10;;;;;;;;;;5013231;28;20245;-88
2023/08/01 06:25:13;;;;;;;1.00;1.00;;;;;;;;;;5011745;28;20579;-87
2023/08/01 06:27:40;;;;;;;2.97;1.00;;;;;;;;;;5011885;28;20252;-88
2023/08/01 06:30:09;;;;;;;1.30;1.10;;;;;;;;;;5010728;28;20222;-88
2023/08/01 06:32:38;;;;;;;1.27;1.17;;;;;;;;;;5019004;28;20255;-88
2023/08/01 06:35:11;;;;;;;1.13;1.13;;;;;;;;;;5012529;28;20200;-88
2023/08/01 06:37:41;;;;;;;2.60;1.20;;;;;;;;;;5011075;28;20346;-88
2023/08/01 06:40:08;;;;;;;1.38;1.30;;;;;;;;;;5009180;28;20295;-87
2023/08/01 06:42:40;;;;;;;1.10;1.10;;;;;;;;;;5010381;28;20210;-88
2023/08/01 06:45:24;;;;;;;2.85;1.27;;;;;;;;;;5010484;28;20206;-88
2023/08/01 06:47:54;;;;;;;1.10;1.10;;;;;;;;;;5009615;28;20231;-87
2023/08/01 06:50:23;;;;;;;10.10;2.53;;;;;;;;;;5009872;28;20207;-89
2023/08/01 06:52:50;;;;;;;11.65;1.73;;;;;;;;;;5009531;28;20258;-87
2023/08/01 06:55:18;;;;;;;1.40;1.30;;;;;;;;;;5009188;28;20286;-86
2023/08/01 06:57:45;;;;;;;1.35;1.25;;;;;;;;;;5007096;28;20204;-88
2023/08/01 07:00:21;;;;;;;1.30;1.30;;;;;;;;;;5009436;28;20200;-87
2023/08/01 07:02:51;;;;;;;1.17;1.17;;;;;;;;;;5006086;28;20665;-88
2023/08/01 07:05:19;;;;;;;1.17;1.17;;;;;;;;;;5009947;28;20229;-88
2023/08/01 07:07:50;;;;;;;1.20;1.15;;;;;;;;;;5006929;28;20231;-88
2023/08/01 07:10:20;;;;;;;1.25;1.25;;;;;;;;;;5013664;28;20278;-87
2023/08/01 07:12:47;;;;;;;1.20;1.20;;;;;;;;;;5015580;28;20539;-87
2023/08/01 07:15:16;;;;;;;1.20;1.20;;;;;;;;;;5015263;28;20203;-88
2023/08/01 07:17:44;;;;;;;1.55;1.42;;;;;;;;;;5014559;28;20184;-87
2023/08/01 07:20:21;;;;;;;1.10;1.10;;;;;;;;;;5013799;28;20224;-88
2023/08/01 07:22:52;;;;;;;1.30;1.30;;;;;;;;;;5011339;28;20207;-87
2023/08/01 07:25:26;;;;;;;1.73;1.60;;;;;;;;;;5013746;28;20287;-87
2023/08/01 07:27:56;;;;;;;1.35;1.35;;;;;;;;;;5013451;28;20255;-87
2023/08/01 07:33:20;;;;;;;1.10;1.10;;;;;;;;;;5012790;28;20310;-89
2023/08/01 07:36:23;;;;;;;1.40;1.30;;;;;;;;;;5012515;28;20276;-89
2023/08/01 07:38:51;;;;;;;1.05;1.05;;;;;;;;;;4978692;28;20209;-87
2023/08/01 07:41:19;;;;;;;1.30;1.30;;;;;;;;;;4975951;28;20225;-86
2023/08/01 07:43:46;;;;;;;1.20;1.20;;;;;;;;;;4976333;28;20663;-88
2023/08/01 07:46:15;;;;;;;2.97;1.45;;;;;;;;;;4974959;28;20248;-89
2023/08/01 07:48:42;;;;;;;1.58;1.48;;;;;;;;;;4976580;28;20237;-88
2023/08/01 07:51:11;;;;;;;1.25;1.25;;;;;;;;;;4976963;28;20228;-87
2023/08/01 07:56:21;;;;;;;1.50;1.50;;;;;;;;;;4978228;28;20206;-87
2023/08/01 07:58:50;;;;;;;1.42;1.30;;;;;;;;;;4979559;28;20194;-87
2023/08/01 08:01:18;;;;;;;1.55;1.55;;;;;;;;;;4986902;28;20334;-86
2023/08/01 08:03:46;;;;;;;1.98;1.88;;;;;;;;;;4989127;28;20197;-86
2023/08/01 08:06:13;;;;;;;1.23;1.23;;;;;;;;;;4985373;28;20585;-86
2023/08/01 08:08:40;;;;;;;1.52;1.45;;;;;;;;;;4971818;28;21996;-87
2023/08/01 08:11:12;;;;;;;5.78;1.58;;;;;;;;;;4979350;28;20379;-88
2023/08/01 08:13:39;;;;;;;2.88;1.60;;;;;;;;;;4983410;28;20286;-89
2023/08/01 08:16:13;;;;;;;1.75;1.60;;;;;;;;;;4978775;28;20257;-87
2023/08/01 08:18:41;;;;;;;2.20;1.60;;;;;;;;;;4961195;28;20233;-87
2023/08/01 08:21:09;;;;;;;1.80;1.70;;;;;;;;;;4981835;28;20298;-89
2023/08/01 08:23:37;;;;;;;2.20;1.90;;;;;;;;;;4989680;28;20312;-88
2023/08/01 08:26:10;;;;;;;1.63;1.52;;;;;;;;;;4972692;28;20600;-90
2023/08/01 08:28:39;;;;;;;1.52;1.42;;;;;;;;;;4973852;28;20269;-87
2023/08/01 08:31:07;;;;;;;3.40;1.58;;;;;;;;;;4972342;28;20233;-88
2023/08/01 08:33:35;;;;;;;3.95;1.75;;;;;;;;;;4975370;28;20210;-88
2023/08/01 08:36:08;;;;;;;1.70;1.60;;;;;;;;;;4973805;28;20288;-87
2023/08/01 08:38:41;;;;;;;3.60;1.60;;;;;;;;;;4993217;28;20208;-88
2023/08/01 08:41:10;;;;;;;7.70;1.90;;;;;;;;;;4996278;28;20260;-87
2023/08/01 08:43:39;;;;;;;1.52;1.42;;;;;;;;;;4995312;28;20306;-88
2023/08/01 08:46:06;;;;;;;1.80;1.70;;;;;;;;;;4992122;28;20212;-88
2023/08/01 08:48:52;;;;;;;;;;;;;;;;;;;;;
2023/08/01 08:51:23;;;;;;;2.25;1.50;;;;;;;;;;5003644;28;20193;-88
2023/08/01 08:53:54;;;;;;;1.80;1.70;;;;;;;;;;5001939;28;20202;-88
2023/08/01 08:56:29;;;;;;;2.00;1.90;;;;;;;;;;4987160;28;20199;-88
2023/08/01 08:59:01;;;;;;;4.88;1.80;;;;;;;;;;4985451;28;20197;-90
2023/08/01 09:01:31;;;;;;;1.60;1.60;;;;;;;;;;4985708;28;20191;-87
2023/08/01 09:04:06;;;;;;;2.25;1.80;;;;;;;;;;4980218;28;20217;-89
2023/08/01 09:06:37;;;;;;;5.35;1.65;;;;;;;;;;4977110;28;20630;-90
2023/08/01 09:09:14;;;;;;;1.85;1.70;;;;;;;;;;4973500;28;20663;-90
2023/08/01 09:11:45;;;;;;;2.65;1.58;;;;;;;;;;4973434;28;20273;-88
2023/08/01 09:14:15;;;;;;;3.83;1.80;;;;;;;;;;4972307;28;20275;-90
2023/08/01 09:16:43;;;;;;;2.85;2.00;;;;;;;;;;4973188;28;20237;-87
2023/08/01 09:19:12;;;;;;;1.70;1.60;;;;;;;;;;4970639;28;20621;-89
2023/08/01 09:21:46;;;;;;;1.88;1.80;;;;;;;;;;4973824;28;20229;-89
2023/08/01 09:24:17;;;;;;;2.58;1.80;;;;;;;;;;4992870;28;20207;-89
2023/08/01 09:26:45;;;;;;;5.68;2.45;;;;;;;;;;4987871;28;20682;-90
2023/08/01 09:29:12;;;;;;;2.03;1.92;;;;;;;;;;4976291;28;20244;-89
2023/08/01 09:31:40;;;;;;;1.75;1.75;;;;;;;;;;4990185;28;20250;-89
2023/08/01 09:34:09;;;;;;;1.65;1.65;;;;;;;;;;4984489;28;20205;-90
2023/08/01 09:36:39;;;;;;;1.98;1.88;;;;;;;;;;4980604;28;20230;-88
2023/08/01 09:39:08;;;;;;;2.22;2.03;;;;;;;;;;5008016;28;20247;-88
2023/08/01 09:41:36;;;;;;;2.05;1.95;;;;;;;;;;5011004;28;20196;-86
2023/08/01 09:44:04;;;;;;;2.13;1.92;;;;;;;;;;5010900;28;20228;-87
2023/08/01 09:46:31;;;;;;;2.30;2.20;;;;;;;;;;5013513;28;20269;-88
2023/08/01 09:49:08;;;;;;;3.20;2.20;;;;;;;;;;5014858;28;20342;-89
2023/08/01 09:51:35;;;;;;;2.55;2.00;;;;;;;;;;5021989;28;20651;-88
2023/08/01 09:54:05;;;;;;;2.20;2.10;;;;;;;;;;5001534;28;20209;-89
2023/08/01 09:56:35;;;;;;;1.90;1.80;;;;;;;;;;5009028;28;20300;-88
2023/08/01 09:59:03;;;;;;;2.20;2.10;;;;;;;;;;5012466;28;20510;-88
2023/08/01 10:01:33;;;;;;;2.22;2.13;;;;;;;;;;5012834;28;20295;-88
2023/08/01 10:04:01;;;;;;;2.75;2.10;;;;;;;;;;5010447;28;20197;-88
2023/08/01 10:06:31;;;;;;;2.10;2.00;;;;;;;;;;5013214;28;20247;-89
2023/08/01 10:08:59;;;;;;;5.70;2.08;;;;;;;;;;5013386;28;20271;-86
2023/08/01 10:11:29;;;;;;;1.75;1.75;;;;;;;;;;5018932;28;20304;-88
2023/08/01 10:13:57;;;;;;;2.00;1.90;;;;;;;;;;5015367;28;20619;-87
2023/08/01 10:16:26;;;;;;;2.10;2.05;;;;;;;;;;5023504;28;20204;-88
2023/08/01 10:18:54;;;;;;;2.55;2.45;;;;;;;;;;5013289;28;20212;-88
2023/08/01 10:21:22;;;;;;;2.53;2.33;;;;;;;;;;5012989;28;20208;-87
2023/08/01 10:23:55;;;;;;;2.38;2.17;;;;;;;;;;5011179;28;20222;-88
2023/08/01 10:26:23;;;;;;;2.85;2.65;;;;;;;;;;5009877;28;20220;-87
2023/08/01 10:29:03;;;;;;;2.20;2.10;;;;;;;;;;5023002;28;20225;-88
2023/08/01 10:31:35;;;;;;;2.00;1.88;;;;;;;;;;5020481;28;20200;-88
2023/08/01 10:34:07;;;;;;;4.30;2.35;;;;;;;;;;5015969;28;20188;-89
2023/08/01 10:36:35;;;;;;;5.65;2.00;;;;;;;;;;5014296;28;20229;-89
2023/08/01 10:39:05;;;;;;;3.55;2.22;;;;;;;;;;5009282;28;20213;-88
2023/08/01 10:41:34;;;;;;;3.83;2.17;;;;;;;;;;5010081;28;20700;-88
2023/08/01 10:44:07;;;;;;;1.80;1.80;;;;;;;;;;5012514;28;20255;-89
2023/08/01 10:46:48;;;;;;;2.55;2.35;;;;;;;;;;5015924;28;20204;-89
2023/08/01 10:49:16;;;;;;;3.28;2.13;;;;;;;;;;5015417;28;20294;-89
2023/08/01 10:51:46;;;;;;;2.08;1.98;;;;;;;;;;5017319;28;20953;-88
2023/08/01 10:54:22;;;;;;;2.15;2.05;;;;;;;;;;5024454;28;20214;-90
2023/08/01 10:56:50;;;;;;;2.08;1.88;;;;;;;;;;5021374;28;20197;-90
2023/08/01 10:59:18;;;;;;;1.80;1.60;;;;;;;;;;5016121;28;20212;-89
2023/08/01 11:01:46;;;;;;;3.78;1.42;;;;;;;;;;5021374;28;20193;-87
2023/08/01 11:04:19;;;;;;;1.25;1.25;;;;;;;;;;5023307;28;20333;-87
2023/08/01 11:06:47;;;;;;;1.30;1.30;;;;;;;;;;5020294;28;20287;-88
2023/08/01 11:09:24;;;;;;;1.67;1.40;;;;;;;;;;5016624;28;20236;-88
2023/08/01 11:11:52;;;;;;;1.50;1.50;;;;;;;;;;5013738;28;20224;-88
2023/08/01 11:14:21;;;;;;;1.30;1.30;;;;;;;;;;5013518;28;20196;-90
2023/08/01 11:16:51;;;;;;;1.73;1.55;;;;;;;;;;5013930;28;20200;-88
2023/08/01 11:19:27;;;;;;;1.90;1.20;;;;;;;;;;5013762;28;20287;-87
2023/08/01 11:21:56;;;;;;;1.35;1.35;;;;;;;;;;5013067;28;20189;-88
2023/08/01 11:24:23;;;;;;;1.40;1.40;;;;;;;;;;5012593;28;20204;-88
2023/08/01 11:26:51;;;;;;;1.23;1.23;;;;;;;;;;5000628;28;20234;-88
2023/08/01 11:29:20;;;;;;;1.50;1.50;;;;;;;;;;5011009;28;20408;-89
2023/08/01 11:31:54;;;;;;;1.42;1.33;;;;;;;;;;5012714;28;20236;-89
2023/08/01 11:34:23;;;;;;;1.15;1.15;;;;;;;;;;5011307;28;20791;-87
2023/08/01 11:36:50;;;;;;;1.40;1.40;;;;;;;;;;5011800;28;20252;-89
2023/08/01 11:39:17;;;;;;;0.95;0.95;;;;;;;;;;5011191;28;20239;-89
2023/08/01 11:41:47;;;;;;;1.42;1.33;;;;;;;;;;5010064;28;20247;-87
2023/08/01 11:44:14;;;;;;;1.27;1.23;;;;;;;;;;5012448;28;20201;-88
2023/08/01 11:46:44;;;;;;;2.08;1.85;;;;;;;;;;5012819;28;20211;-89
2023/08/01 11:49:15;;;;;;;1.77;1.67;;;;;;;;;;5010953;28;20201;-88
2023/08/01 11:51:44;;;;;;;2.35;2.25;;;;;;;;;;5011689;28;20768;-89
2023/08/01 11:54:13;;;;;;;1.85;1.75;;;;;;;;;;5012089;28;20631;-87
2023/08/01 11:56:41;;;;;;;2.00;1.80;;;;;;;;;;5011456;28;20239;-88
2023/08/01 11:59:14;;;;;;;1.90;1.80;;;;;;;;;;5012677;28;20633;-86
2023/08/01 12:01:42;;;;;;;1.45;1.35;;;;;;;;;;5012826;28;20219;-86
2023/08/01 12:04:10;;;;;;;1.95;1.83;;;;;;;;;;5016833;28;20658;-89
2023/08/01 12:06:39;;;;;;;1.95;1.75;;;;;;;;;;5016941;28;20224;-88
2023/08/01 12:12:00;;;;;;;1.40;1.40;;;;;;;;;;4991112;28;20223;-89
2023/08/01 12:14:29;;;;;;;1.60;1.50;;;;;;;;;;4994861;28;20714;-88
2023/08/01 12:16:55;;;;;;;1.70;1.63;;;;;;;;;;5000564;28;20229;-88
2023/08/01 12:19:23;;;;;;;1.92;1.73;;;;;;;;;;5025182;28;20225;-88
2023/08/01 12:21:50;;;;;;;1.20;1.20;;;;;;;;;;5025908;28;20237;-89
2023/08/01 12:24:19;;;;;;;1.10;1.10;;;;;;;;;;5015030;28;20225;-88
2023/08/01 12:26:53;;;;;;;1.13;1.10;;;;;;;;;;5008855;28;20240;-88
2023/08/01 12:29:24;;;;;;;0.80;0.80;;;;;;;;;;5012289;28;20228;-87
2023/08/01 12:31:54;;;;;;;0.90;0.90;;;;;;;;;;5010422;28;20331;-88
2023/08/01 12:34:22;;;;;;;1.10;1.00;;;;;;;;;;5011299;28;20246;-87
2023/08/01 12:36:49;;;;;;;1.30;1.20;;;;;;;;;;5011620;28;20236;-89
2023/08/01 12:39:19;;;;;;;2.00;1.20;;;;;;;;;;5010277;28;20221;-89
2023/08/01 12:41:50;;;;;;;1.08;1.08;;;;;;;;;;5010990;28;20302;-89
2023/08/01 12:44:17;;;;;;;1.95;1.10;;;;;;;;;;5011439;28;20221;-87
2023/08/01 12:46:44;;;;;;;1.02;1.02;;;;;;;;;;5010794;28;20416;-88
2023/08/01 12:49:11;;;;;;;1.10;1.10;;;;;;;;;;5024462;28;20256;-87
2023/08/01 12:51:38;;;;;;;1.08;1.08;;;;;;;;;;5026409;28;20264;-87
2023/08/01 12:54:05;;;;;;;0.90;0.90;;;;;;;;;;5011821;28;20700;-88
2023/08/01 12:56:33;;;;;;;1.00;1.00;;;;;;;;;;5014423;28;20279;-87
2023/08/01 12:59:02;;;;;;;1.33;1.23;;;;;;;;;;5013613;28;20275;-89
2023/08/01 13:01:28;;;;;;;2.10;0.90;;;;;;;;;;5010477;28;20658;-87
2023/08/01 13:03:56;;;;;;;0.90;0.90;;;;;;;;;;5009897;28;20740;-87
2023/08/01 13:06:23;;;;;;;1.13;0.98;;;;;;;;;;5012002;28;20268;-87
2023/08/01 13:08:49;;;;;;;1.20;1.17;;;;;;;;;;5012056;28;20635;-89
2023/08/01 13:11:17;;;;;;;1.13;0.95;;;;;;;;;;5010041;28;20287;-87
2023/08/01 13:13:45;;;;;;;1.02;1.02;;;;;;;;;;5008810;28;20224;-88
2023/08/01 13:16:14;;;;;;;3.08;1.20;;;;;;;;;;5009498;28;20279;-88
2023/08/01 13:18:44;;;;;;;0.82;0.82;;;;;;;;;;5008659;28;20336;-88
2023/08/01 13:21:12;;;;;;;0.80;0.80;;;;;;;;;;5012100;28;20236;-89
2023/08/01 13:23:39;;;;;;;3.33;1.00;;;;;;;;;;5008615;28;20651;-89
2023/08/01 13:29:34;;;;;;;0.80;0.80;;;;;;;;;;5115566;27;20643;-88
2023/08/01 13:32:11;;;;;;;0.90;0.90;;;;;;;;;;5086050;28;20216;-89
2023/08/01 13:34:46;;;;;;;1.10;1.00;;;;;;;;;;5084870;28;20316;-88
2023/08/01 13:37:35;;;;;;;12.27;8.40;;;;;;;;;;5089544;28;20287;-88
2023/08/01 13:40:13;;;;;;;4.68;4.47;;;;;;;;;;5088601;28;20308;-88
2023/08/01 13:42:44;;;;;;;5.57;5.13;;;;;;;;;;5086155;28;20313;-88
2023/08/01 13:45:14;;;;;;;1.83;1.73;;;;;;;;;;5085881;28;20222;-87
2023/08/01 13:47:47;;;;;;;4.35;3.95;;;;;;;;;;5085525;28;20246;-88
2023/08/01 13:50:36;;;;;;;1.63;1.63;;;;;;;;;;5085961;28;20222;-88
2023/08/01 13:53:11;;;;;;;1.27;1.17;;;;;;;;;;5087838;28;20228;-86
2023/08/01 13:55:46;;;;;;;3.78;3.17;;;;;;;;;;5088589;28;20225;-86
2023/08/01 13:58:20;;;;;;;31.98;18.90;;;;;;;;;;5101912;28;20243;-85
2023/08/01 14:01:04;;;;;;;3.17;2.40;;;;;;;;;;5103078;28;20304;-89
2023/08/01 14:03:32;;;;;;;3.80;3.50;;;;;;;;;;5108383;28;20237;-88
2023/08/01 14:06:08;;;;;;;2.97;2.78;;;;;;;;;;5106477;27;20233;-88
2023/08/01 14:08:37;;;;;;;1.15;1.15;;;;;;;;;;5106831;27;20237;-88
2023/08/01 14:11:10;;;;;;;2.47;2.38;;;;;;;;;;5107303;27;20225;-89
2023/08/01 14:13:39;;;;;;;4.88;4.47;;;;;;;;;;5106407;27;20293;-88
2023/08/01 14:16:10;;;;;;;1.38;1.27;;;;;;;;;;5108686;27;20266;-87
2023/08/01 14:18:42;;;;;;;1.02;1.02;;;;;;;;;;5106749;27;20230;-89
2023/08/01 14:21:10;;;;;;;2.47;1.13;;;;;;;;;;5106940;27;20256;-90
2023/08/01 14:23:42;;;;;;;1.00;1.00;;;;;;;;;;5106732;27;20245;-89
2023/08/01 14:26:12;;;;;;;1.10;1.10;;;;;;;;;;5106001;27;20228;-88
2023/08/01 14:28:46;;;;;;;0.82;0.82;;;;;;;;;;5106085;28;20634;-88
2023/08/01 14:31:15;;;;;;;1.33;1.23;;;;;;;;;;5092694;27;20230;-88
2023/08/01 14:33:47;;;;;;;1.35;1.27;;;;;;;;;;5086039;28;20242;-89
2023/08/01 14:36:18;;;;;;;1.13;1.05;;;;;;;;;;5082614;28;20290;-87
2023/08/01 14:38:54;;;;;;;1.30;1.30;;;;;;;;;;5084798;28;20246;-89
2023/08/01 14:41:26;;;;;;;1.30;1.20;;;;;;;;;;5066993;28;20286;-87
2023/08/01 14:44:13;;;;;;;1.25;1.25;;;;;;;;;;5077075;28;20222;-87
2023/08/01 14:46:54;;;;;;;1.30;1.30;;;;;;;;;;5074913;28;20303;-87
2023/08/01 14:49:27;;;;;;;1.38;1.38;;;;;;;;;;5093747;28;20340;-87
2023/08/01 14:52:06;;;;;;;1.00;1.00;;;;;;;;;;5094560;27;20291;-87
2023/08/01 14:54:37;;;;;;;1.10;1.10;;;;;;;;;;5093791;28;20226;-87
2023/08/01 14:57:25;;;;;;;2.30;1.25;;;;;;;;;;5094748;28;20282;-89
2023/08/01 14:59:54;;;;;;;8.18;2.55;;;;;;;;;;5089080;28;20294;-87
2023/08/01 15:02:36;;;;;;;3.58;1.85;;;;;;;;;;5070824;28;20230;-87
2023/08/01 15:05:12;;;;;;;3.25;1.17;;;;;;;;;;5079065;28;20297;-87
2023/08/01 15:07:55;;;;;;;1.50;1.40;;;;;;;;;;5089428;28;20266;-87
2023/08/01 15:10:40;;;;;;;1.45;1.35;;;;;;;;;;5077399;28;20265;-88
2023/08/01 15:13:07;;;;;;;1.35;1.25;;;;;;;;;;5080171;28;20230;-89